sensor_id;sensor_type;location;lat;lon;timestamp;P1;durP1;ratioP1;P2;durP2;ratioP2
9729;SDS011;4904;49.152;11.004;2023-08-08T00:01:35;2.95;;;2.20;;
9729;SDS011;4904;49.152;11.004;2023-08-08T00:04:03;2.33;;;2.17;;
9729;SDS011;4904;49.152;11.004;2023-08-08T00:06:30;2.58;;;2.38;;
9729;SDS011;4904;49.152;11.004;2023-08-08T00:08:57;2.80;;;2.50;;
9729;SDS011;4904;49.152;11.004;2023-08-08T00:11:24;3.08;;;2.10;;
9729;SDS011;4904;49.152;11.004;2023-08-08T00:13:51;2.60;;;2.40;;
9729;SDS011;4904;49.152;11.004;2023-08-08T00:16:18;5.20;;;2.55;;
9729;SDS011;4904;49.152;11.004;2023-08-08T00:18:45;2.60;;;2.10;;
9729;SDS011;4904;49.152;11.004;2023-08-08T00:21:13;2.22;;;2.00;;
9729;SDS011;4904;49.152;11.004;2023-08-08T00:23:39;2.40;;;2.20;;
9729;SDS011;4904;49.152;11.004;2023-08-08T00:26:06;2.60;;;2.40;;
9729;SDS011;4904;49.152;11.004;2023-08-08T00:28:33;3.90;;;2.28;;
9729;SDS011;4904;49.152;11.004;2023-08-08T00:31:00;2.30;;;2.10;;
9729;SDS011;4904;49.152;11.004;2023-08-08T00:33:27;4.15;;;2.20;;
9729;SDS011;4904;49.152;11.004;2023-08-08T00:35:54;2.40;;;2.20;;
9729;SDS011;4904;49.152;11.004;2023-08-08T00:38:22;2.60;;;2.40;;
9729;SDS011;4904;49.152;11.004;2023-08-08T00:40:49;5.00;;;2.55;;
9729;SDS011;4904;49.152;11.004;2023-08-08T00:43:16;2.00;;;1.83;;
9729;SDS011;4904;49.152;11.004;2023-08-08T00:45:43;3.25;;;2.17;;
9729;SDS011;4904;49.152;11.004;2023-08-08T00:48:11;3.55;;;2.35;;
9729;SDS011;4904;49.152;11.004;2023-08-08T00:50:42;2.53;;;2.15;;
9729;SDS011;4904;49.152;11.004;2023-08-08T00:53:10;2.50;;;2.10;;
9729;SDS011;4904;49.152;11.004;2023-08-08T00:55:39;2.78;;;2.13;;
9729;SDS011;4904;49.152;11.004;2023-08-08T00:58:05;3.88;;;2.70;;
9729;SDS011;4904;49.152;11.004;2023-08-08T01:00:33;2.60;;;2.08;;
9729;SDS011;4904;49.152;11.004;2023-08-08T01:03:00;2.17;;;1.98;;
9729;SDS011;4904;49.152;11.004;2023-08-08T01:05:28;4.13;;;2.03;;
9729;SDS011;4904;49.152;11.004;2023-08-08T01:08:03;2.45;;;2.25;;
9729;SDS011;4904;49.152;11.004;2023-08-08T01:10:33;2.53;;;2.30;;
9729;SDS011;4904;49.152;11.004;2023-08-08T01:13:05;3.25;;;2.30;;
9729;SDS011;4904;49.152;11.004;2023-08-08T01:15:36;2.78;;;2.15;;
9729;SDS011;4904;49.152;11.004;2023-08-08T01:18:04;3.38;;;2.08;;
9729;SDS011;4904;49.152;11.004;2023-08-08T01:20:32;3.58;;;2.30;;
9729;SDS011;4904;49.152;11.004;2023-08-08T01:23:03;2.10;;;1.90;;
9729;SDS011;4904;49.152;11.004;2023-08-08T01:25:38;2.83;;;1.75;;
9729;SDS011;4904;49.152;11.004;2023-08-08T01:28:07;2.05;;;1.90;;
9729;SDS011;4904;49.152;11.004;2023-08-08T01:30:35;3.53;;;2.17;;
9729;SDS011;4904;49.152;11.004;2023-08-08T01:33:02;2.72;;;1.90;;
9729;SDS011;4904;49.152;11.004;2023-08-08T01:35:30;2.08;;;1.80;;
9729;SDS011;4904;49.152;11.004;2023-08-08T01:38:06;2.42;;;2.15;;
9729;SDS011;4904;49.152;11.004;2023-08-08T01:40:36;3.05;;;2.13;;
9729;SDS011;4904;49.152;11.004;2023-08-08T01:43:07;2.60;;;2.28;;
9729;SDS011;4904;49.152;11.004;2023-08-08T01:45:35;2.30;;;1.92;;
9729;SDS011;4904;49.152;11.004;2023-08-08T01:48:05;2.28;;;2.08;;
9729;SDS011;4904;49.152;11.004;2023-08-08T01:50:33;2.55;;;2.00;;
9729;SDS011;4904;49.152;11.004;2023-08-08T01:53:00;2.42;;;2.20;;
9729;SDS011;4904;49.152;11.004;2023-08-08T01:55:27;2.30;;;2.10;;
9729;SDS011;4904;49.152;11.004;2023-08-08T01:57:54;2.58;;;2.03;;
9729;SDS011;4904;49.152;11.004;2023-08-08T02:00:24;3.92;;;2.22;;
9729;SDS011;4904;49.152;11.004;2023-08-08T02:02:50;3.30;;;2.30;;
9729;SDS011;4904;49.152;11.004;2023-08-08T02:05:17;4.35;;;2.10;;
9729;SDS011;4904;49.152;11.004;2023-08-08T02:07:44;2.25;;;2.08;;
9729;SDS011;4904;49.152;11.004;2023-08-08T02:10:11;2.05;;;1.92;;
9729;SDS011;4904;49.152;11.004;2023-08-08T02:12:39;2.38;;;2.17;;
9729;SDS011;4904;49.152;11.004;2023-08-08T02:15:06;2.95;;;1.98;;
9729;SDS011;4904;49.152;11.004;2023-08-08T02:17:35;2.70;;;2.05;;
9729;SDS011;4904;49.152;11.004;2023-08-08T02:20:04;3.88;;;2.33;;
9729;SDS011;4904;49.152;11.004;2023-08-08T02:22:32;2.15;;;1.88;;
9729;SDS011;4904;49.152;11.004;2023-08-08T02:24:59;4.78;;;1.75;;
9729;SDS011;4904;49.152;11.004;2023-08-08T02:27:26;3.28;;;2.30;;
9729;SDS011;4904;49.152;11.004;2023-08-08T02:29:53;3.20;;;2.03;;
9729;SDS011;4904;49.152;11.004;2023-08-08T02:32:20;2.45;;;2.13;;
9729;SDS011;4904;49.152;11.004;2023-08-08T02:34:48;3.80;;;2.03;;
9729;SDS011;4904;49.152;11.004;2023-08-08T02:37:15;2.38;;;2.17;;
9729;SDS011;4904;49.152;11.004;2023-08-08T02:39:42;2.40;;;2.20;;
9729;SDS011;4904;49.152;11.004;2023-08-08T02:42:10;2.20;;;2.00;;
9729;SDS011;4904;49.152;11.004;2023-08-08T02:44:37;3.13;;;2.35;;
9729;SDS011;4904;49.152;11.004;2023-08-08T02:47:03;2.35;;;2.00;;
9729;SDS011;4904;49.152;11.004;2023-08-08T02:49:30;1.77;;;1.67;;
9729;SDS011;4904;49.152;11.004;2023-08-08T02:51:59;2.50;;;2.30;;
9729;SDS011;4904;49.152;11.004;2023-08-08T02:54:26;2.15;;;1.90;;
9729;SDS011;4904;49.152;11.004;2023-08-08T02:56:54;2.35;;;2.15;;
9729;SDS011;4904;49.152;11.004;2023-08-08T02:59:20;3.75;;;1.92;;
9729;SDS011;4904;49.152;11.004;2023-08-08T03:01:48;1.95;;;1.80;;
9729;SDS011;4904;49.152;11.004;2023-08-08T03:04:15;2.60;;;2.10;;
9729;SDS011;4904;49.152;11.004;2023-08-08T03:06:41;3.55;;;2.30;;
9729;SDS011;4904;49.152;11.004;2023-08-08T03:09:10;2.28;;;2.08;;
9729;SDS011;4904;49.152;11.004;2023-08-08T03:11:37;2.65;;;2.15;;
9729;SDS011;4904;49.152;11.004;2023-08-08T03:14:06;3.90;;;2.20;;
9729;SDS011;4904;49.152;11.004;2023-08-08T03:16:34;3.28;;;2.05;;
9729;SDS011;4904;49.152;11.004;2023-08-08T03:19:00;2.28;;;2.08;;
9729;SDS011;4904;49.152;11.004;2023-08-08T03:21:27;2.78;;;2.13;;
9729;SDS011;4904;49.152;11.004;2023-08-08T03:23:55;2.42;;;2.10;;
9729;SDS011;4904;49.152;11.004;2023-08-08T03:26:23;2.22;;;2.00;;
9729;SDS011;4904;49.152;11.004;2023-08-08T03:28:50;2.72;;;1.90;;
9729;SDS011;4904;49.152;11.004;2023-08-08T03:31:18;2.97;;;2.25;;
9729;SDS011;4904;49.152;11.004;2023-08-08T03:33:45;2.00;;;1.90;;
9729;SDS011;4904;49.152;11.004;2023-08-08T03:36:12;2.28;;;2.08;;
9729;SDS011;4904;49.152;11.004;2023-08-08T03:38:39;2.95;;;2.10;;
9729;SDS011;4904;49.152;11.004;2023-08-08T03:41:09;2.40;;;2.08;;
9729;SDS011;4904;49.152;11.004;2023-08-08T03:43:37;2.42;;;2.00;;
9729;SDS011;4904;49.152;11.004;2023-08-08T03:46:05;2.08;;;1.88;;
9729;SDS011;4904;49.152;11.004;2023-08-08T03:48:31;2.30;;;2.10;;
9729;SDS011;4904;49.152;11.004;2023-08-08T03:50:58;2.30;;;1.83;;
9729;SDS011;4904;49.152;11.004;2023-08-08T03:53:25;2.55;;;2.05;;
9729;SDS011;4904;49.152;11.004;2023-08-08T03:55:52;2.33;;;2.13;;
9729;SDS011;4904;49.152;11.004;2023-08-08T03:58:19;2.03;;;1.83;;
9729;SDS011;4904;49.152;11.004;2023-08-08T04:00:48;2.13;;;1.92;;
9729;SDS011;4904;49.152;11.004;2023-08-08T04:03:15;2.50;;;2.30;;
9729;SDS011;4904;49.152;11.004;2023-08-08T04:05:44;2.47;;;2.17;;
9729;SDS011;4904;49.152;11.004;2023-08-08T04:08:12;2.33;;;2.13;;
9729;SDS011;4904;49.152;11.004;2023-08-08T04:10:40;4.63;;;2.13;;
9729;SDS011;4904;49.152;11.004;2023-08-08T04:13:07;4.53;;;2.63;;
9729;SDS011;4904;49.152;11.004;2023-08-08T04:15:34;2.20;;;2.00;;
9729;SDS011;4904;49.152;11.004;2023-08-08T04:18:02;2.78;;;2.17;;
9729;SDS011;4904;49.152;11.004;2023-08-08T04:20:31;3.05;;;2.47;;
9729;SDS011;4904;49.152;11.004;2023-08-08T04:22:58;2.30;;;2.10;;
9729;SDS011;4904;49.152;11.004;2023-08-08T04:25:25;4.85;;;2.55;;
9729;SDS011;4904;49.152;11.004;2023-08-08T04:27:53;3.20;;;2.60;;
9729;SDS011;4904;49.152;11.004;2023-08-08T04:30:20;2.42;;;2.20;;
9729;SDS011;4904;49.152;11.004;2023-08-08T04:32:48;2.47;;;1.85;;
9729;SDS011;4904;49.152;11.004;2023-08-08T04:35:16;7.55;;;2.80;;
9729;SDS011;4904;49.152;11.004;2023-08-08T04:37:43;3.10;;;2.85;;
9729;SDS011;4904;49.152;11.004;2023-08-08T04:40:10;4.40;;;2.80;;
9729;SDS011;4904;49.152;11.004;2023-08-08T04:42:38;4.20;;;2.50;;
9729;SDS011;4904;49.152;11.004;2023-08-08T04:45:06;3.85;;;2.13;;
9729;SDS011;4904;49.152;11.004;2023-08-08T04:47:33;2.38;;;2.10;;
9729;SDS011;4904;49.152;11.004;2023-08-08T04:50:00;3.20;;;2.17;;
9729;SDS011;4904;49.152;11.004;2023-08-08T04:52:29;2.67;;;2.20;;
9729;SDS011;4904;49.152;11.004;2023-08-08T04:54:55;4.65;;;2.40;;
9729;SDS011;4904;49.152;11.004;2023-08-08T04:57:22;2.22;;;2.03;;
9729;SDS011;4904;49.152;11.004;2023-08-08T04:59:49;2.55;;;2.35;;
9729;SDS011;4904;49.152;11.004;2023-08-08T05:02:17;2.13;;;1.92;;
9729;SDS011;4904;49.152;11.004;2023-08-08T05:04:44;3.67;;;1.98;;
9729;SDS011;4904;49.152;11.004;2023-08-08T05:07:11;4.13;;;1.92;;
9729;SDS011;4904;49.152;11.004;2023-08-08T05:09:39;2.30;;;2.10;;
9729;SDS011;4904;49.152;11.004;2023-08-08T05:12:06;2.38;;;2.00;;
9729;SDS011;4904;49.152;11.004;2023-08-08T05:14:33;2.83;;;2.28;;
9729;SDS011;4904;49.152;11.004;2023-08-08T05:17:01;3.15;;;2.10;;
9729;SDS011;4904;49.152;11.004;2023-08-08T05:19:28;3.50;;;2.17;;
9729;SDS011;4904;49.152;11.004;2023-08-08T05:21:55;3.97;;;2.25;;
9729;SDS011;4904;49.152;11.004;2023-08-08T05:24:22;2.47;;;2.00;;
9729;SDS011;4904;49.152;11.004;2023-08-08T05:26:50;3.08;;;2.25;;
9729;SDS011;4904;49.152;11.004;2023-08-08T05:29:18;3.40;;;2.25;;
9729;SDS011;4904;49.152;11.004;2023-08-08T05:31:45;2.40;;;2.20;;
9729;SDS011;4904;49.152;11.004;2023-08-08T05:34:12;3.33;;;1.90;;
9729;SDS011;4904;49.152;11.004;2023-08-08T05:36:39;2.60;;;2.38;;
9729;SDS011;4904;49.152;11.004;2023-08-08T05:39:07;2.00;;;1.80;;
9729;SDS011;4904;49.152;11.004;2023-08-08T05:41:34;3.35;;;1.98;;
9729;SDS011;4904;49.152;11.004;2023-08-08T05:44:03;2.40;;;2.20;;
9729;SDS011;4904;49.152;11.004;2023-08-08T05:46:30;2.08;;;1.85;;
9729;SDS011;4904;49.152;11.004;2023-08-08T05:48:57;2.45;;;2.25;;
9729;SDS011;4904;49.152;11.004;2023-08-08T05:51:24;2.85;;;1.85;;
9729;SDS011;4904;49.152;11.004;2023-08-08T05:53:51;4.00;;;2.28;;
9729;SDS011;4904;49.152;11.004;2023-08-08T05:56:18;2.33;;;2.10;;
9729;SDS011;4904;49.152;11.004;2023-08-08T05:58:45;3.45;;;2.42;;
9729;SDS011;4904;49.152;11.004;2023-08-08T06:01:13;2.60;;;2.40;;
9729;SDS011;4904;49.152;11.004;2023-08-08T06:03:40;2.78;;;2.35;;
9729;SDS011;4904;49.152;11.004;2023-08-08T06:06:07;4.43;;;2.10;;
9729;SDS011;4904;49.152;11.004;2023-08-08T06:08:34;3.50;;;2.22;;
9729;SDS011;4904;49.152;11.004;2023-08-08T06:11:01;2.50;;;2.00;;
9729;SDS011;4904;49.152;11.004;2023-08-08T06:13:28;2.92;;;2.05;;
9729;SDS011;4904;49.152;11.004;2023-08-08T06:15:55;2.30;;;2.10;;
9729;SDS011;4904;49.152;11.004;2023-08-08T06:18:24;2.47;;;2.13;;
9729;SDS011;4904;49.152;11.004;2023-08-08T06:20:51;3.25;;;2.17;;
9729;SDS011;4904;49.152;11.004;2023-08-08T06:23:17;2.60;;;2.10;;
9729;SDS011;4904;49.152;11.004;2023-08-08T06:25:44;3.28;;;2.00;;
9729;SDS011;4904;49.152;11.004;2023-08-08T06:28:11;2.25;;;1.90;;
9729;SDS011;4904;49.152;11.004;2023-08-08T06:30:38;3.88;;;1.90;;
9729;SDS011;4904;49.152;11.004;2023-08-08T06:33:05;3.17;;;2.17;;
9729;SDS011;4904;49.152;11.004;2023-08-08T06:35:35;2.92;;;2.05;;
9729;SDS011;4904;49.152;11.004;2023-08-08T06:38:02;2.88;;;2.60;;
9729;SDS011;4904;49.152;11.004;2023-08-08T06:40:29;2.13;;;2.03;;
9729;SDS011;4904;49.152;11.004;2023-08-08T06:42:57;2.50;;;1.77;;
9729;SDS011;4904;49.152;11.004;2023-08-08T06:45:24;1.75;;;1.65;;
9729;SDS011;4904;49.152;11.004;2023-08-08T06:47:51;1.92;;;1.83;;
9729;SDS011;4904;49.152;11.004;2023-08-08T06:50:18;2.95;;;2.15;;
9729;SDS011;4904;49.152;11.004;2023-08-08T06:52:46;1.90;;;1.80;;
9729;SDS011;4904;49.152;11.004;2023-08-08T06:55:13;2.20;;;2.00;;
9729;SDS011;4904;49.152;11.004;2023-08-08T06:57:41;2.10;;;1.88;;
9729;SDS011;4904;49.152;11.004;2023-08-08T07:00:08;3.42;;;1.98;;
9729;SDS011;4904;49.152;11.004;2023-08-08T07:02:37;1.90;;;1.80;;
9729;SDS011;4904;49.152;11.004;2023-08-08T07:05:04;3.15;;;2.08;;
9729;SDS011;4904;49.152;11.004;2023-08-08T07:07:34;2.08;;;1.90;;
9729;SDS011;4904;49.152;11.004;2023-08-08T07:10:03;2.42;;;2.22;;
9729;SDS011;4904;49.152;11.004;2023-08-08T07:12:31;2.15;;;1.95;;
9729;SDS011;4904;49.152;11.004;2023-08-08T07:14:59;3.38;;;1.90;;
9729;SDS011;4904;49.152;11.004;2023-08-08T07:17:26;2.10;;;1.90;;
9729;SDS011;4904;49.152;11.004;2023-08-08T07:19:53;3.72;;;1.75;;
9729;SDS011;4904;49.152;11.004;2023-08-08T07:22:21;2.08;;;1.98;;
9729;SDS011;4904;49.152;11.004;2023-08-08T07:24:49;2.35;;;2.15;;
9729;SDS011;4904;49.152;11.004;2023-08-08T07:27:17;2.40;;;1.90;;
9729;SDS011;4904;49.152;11.004;2023-08-08T07:29:44;1.95;;;1.80;;
9729;SDS011;4904;49.152;11.004;2023-08-08T07:32:11;1.80;;;1.70;;
9729;SDS011;4904;49.152;11.004;2023-08-08T07:34:38;3.38;;;1.95;;
9729;SDS011;4904;49.152;11.004;2023-08-08T07:37:05;2.00;;;1.90;;
9729;SDS011;4904;49.152;11.004;2023-08-08T07:39:32;1.98;;;1.85;;
9729;SDS011;4904;49.152;11.004;2023-08-08T07:41:58;3.53;;;2.10;;
9729;SDS011;4904;49.152;11.004;2023-08-08T07:44:27;2.58;;;1.90;;
9729;SDS011;4904;49.152;11.004;2023-08-08T07:46:54;1.88;;;1.77;;
9729;SDS011;4904;49.152;11.004;2023-08-08T07:49:20;2.38;;;1.77;;
9729;SDS011;4904;49.152;11.004;2023-08-08T07:51:48;2.28;;;2.08;;
9729;SDS011;4904;49.152;11.004;2023-08-08T07:54:15;1.95;;;1.75;;
9729;SDS011;4904;49.152;11.004;2023-08-08T07:56:42;2.63;;;1.92;;
9729;SDS011;4904;49.152;11.004;2023-08-08T07:59:09;2.53;;;1.80;;
9729;SDS011;4904;49.152;11.004;2023-08-08T08:01:37;3.25;;;1.95;;
9729;SDS011;4904;49.152;11.004;2023-08-08T08:04:04;3.05;;;2.10;;
9729;SDS011;4904;49.152;11.004;2023-08-08T08:06:31;2.45;;;2.03;;
9729;SDS011;4904;49.152;11.004;2023-08-08T08:08:58;3.67;;;2.10;;
9729;SDS011;4904;49.152;11.004;2023-08-08T08:11:25;3.13;;;2.25;;
9729;SDS011;4904;49.152;11.004;2023-08-08T08:13:52;7.72;;;2.20;;
9729;SDS011;4904;49.152;11.004;2023-08-08T08:16:19;3.67;;;1.80;;
9729;SDS011;4904;49.152;11.004;2023-08-08T08:18:47;2.05;;;1.80;;
9729;SDS011;4904;49.152;11.004;2023-08-08T08:21:14;2.80;;;2.20;;
9729;SDS011;4904;49.152;11.004;2023-08-08T08:23:42;3.20;;;1.92;;
9729;SDS011;4904;49.152;11.004;2023-08-08T08:26:09;3.92;;;1.85;;
9729;SDS011;4904;49.152;11.004;2023-08-08T08:28:37;2.13;;;1.80;;
9729;SDS011;4904;49.152;11.004;2023-08-08T08:31:05;2.30;;;1.88;;
9729;SDS011;4904;49.152;11.004;2023-08-08T08:33:32;2.75;;;1.88;;
9729;SDS011;4904;49.152;11.004;2023-08-08T08:36:00;1.83;;;1.70;;
9729;SDS011;4904;49.152;11.004;2023-08-08T08:38:27;2.33;;;1.83;;
9729;SDS011;4904;49.152;11.004;2023-08-08T08:40:54;1.80;;;1.70;;
9729;SDS011;4904;49.152;11.004;2023-08-08T08:43:23;1.60;;;1.50;;
9729;SDS011;4904;49.152;11.004;2023-08-08T08:45:52;1.95;;;1.75;;
9729;SDS011;4904;49.152;11.004;2023-08-08T08:48:20;2.05;;;1.80;;
9729;SDS011;4904;49.152;11.004;2023-08-08T08:50:48;2.10;;;1.73;;
9729;SDS011;4904;49.152;11.004;2023-08-08T08:53:16;2.00;;;1.70;;
9729;SDS011;4904;49.152;11.004;2023-08-08T08:55:43;3.08;;;1.83;;
9729;SDS011;4904;49.152;11.004;2023-08-08T08:58:13;1.52;;;1.42;;
9729;SDS011;4904;49.152;11.004;2023-08-08T09:00:41;2.28;;;1.70;;
9729;SDS011;4904;49.152;11.004;2023-08-08T09:03:10;2.42;;;1.70;;
9729;SDS011;4904;49.152;11.004;2023-08-08T09:05:38;2.22;;;1.60;;
9729;SDS011;4904;49.152;11.004;2023-08-08T09:08:06;1.77;;;1.67;;
9729;SDS011;4904;49.152;11.004;2023-08-08T09:10:35;3.15;;;1.63;;
9729;SDS011;4904;49.152;11.004;2023-08-08T09:13:02;4.07;;;1.70;;
9729;SDS011;4904;49.152;11.004;2023-08-08T09:15:30;2.35;;;1.83;;
9729;SDS011;4904;49.152;11.004;2023-08-08T09:17:57;2.05;;;1.58;;
9729;SDS011;4904;49.152;11.004;2023-08-08T09:20:25;2.10;;;1.67;;
9729;SDS011;4904;49.152;11.004;2023-08-08T09:22:53;2.35;;;2.10;;
9729;SDS011;4904;49.152;11.004;2023-08-08T09:25:20;1.70;;;1.60;;
9729;SDS011;4904;49.152;11.004;2023-08-08T09:27:48;2.40;;;1.90;;
9729;SDS011;4904;49.152;11.004;2023-08-08T09:30:16;1.77;;;1.50;;
9729;SDS011;4904;49.152;11.004;2023-08-08T09:32:43;2.28;;;1.90;;
9729;SDS011;4904;49.152;11.004;2023-08-08T09:35:11;1.90;;;1.80;;
9729;SDS011;4904;49.152;11.004;2023-08-08T09:37:38;2.83;;;1.80;;
9729;SDS011;4904;49.152;11.004;2023-08-08T09:40:05;1.50;;;1.40;;
9729;SDS011;4904;49.152;11.004;2023-08-08T09:42:35;3.28;;;1.50;;
9729;SDS011;4904;49.152;11.004;2023-08-08T09:45:04;1.98;;;1.60;;
9729;SDS011;4904;49.152;11.004;2023-08-08T09:47:32;2.15;;;1.63;;
9729;SDS011;4904;49.152;11.004;2023-08-08T09:49:59;3.03;;;1.67;;
9729;SDS011;4904;49.152;11.004;2023-08-08T09:52:26;1.92;;;1.63;;
9729;SDS011;4904;49.152;11.004;2023-08-08T09:54:54;2.15;;;1.40;;
9729;SDS011;4904;49.152;11.004;2023-08-08T09:57:22;2.47;;;1.48;;
9729;SDS011;4904;49.152;11.004;2023-08-08T09:59:49;2.50;;;1.92;;
9729;SDS011;4904;49.152;11.004;2023-08-08T10:02:19;3.13;;;1.90;;
9729;SDS011;4904;49.152;11.004;2023-08-08T10:04:47;1.70;;;1.60;;
9729;SDS011;4904;49.152;11.004;2023-08-08T10:07:14;4.10;;;1.90;;
9729;SDS011;4904;49.152;11.004;2023-08-08T10:09:41;3.95;;;1.70;;
9729;SDS011;4904;49.152;11.004;2023-08-08T10:12:09;1.60;;;1.50;;
9729;SDS011;4904;49.152;11.004;2023-08-08T10:14:41;3.03;;;1.90;;
9729;SDS011;4904;49.152;11.004;2023-08-08T10:17:12;2.40;;;1.38;;
9729;SDS011;4904;49.152;11.004;2023-08-08T10:19:41;1.90;;;1.60;;
9729;SDS011;4904;49.152;11.004;2023-08-08T10:22:19;1.85;;;1.67;;
9729;SDS011;4904;49.152;11.004;2023-08-08T10:24:50;1.85;;;1.42;;
9729;SDS011;4904;49.152;11.004;2023-08-08T10:27:26;1.67;;;1.55;;
9729;SDS011;4904;49.152;11.004;2023-08-08T10:30:00;2.17;;;1.60;;
9729;SDS011;4904;49.152;11.004;2023-08-08T10:32:28;2.50;;;1.73;;
9729;SDS011;4904;49.152;11.004;2023-08-08T10:35:06;2.05;;;1.67;;
9729;SDS011;4904;49.152;11.004;2023-08-08T10:37:34;1.60;;;1.50;;
9729;SDS011;4904;49.152;11.004;2023-08-08T10:40:03;1.60;;;1.50;;
9729;SDS011;4904;49.152;11.004;2023-08-08T10:42:32;2.03;;;1.83;;
9729;SDS011;4904;49.152;11.004;2023-08-08T10:45:09;3.63;;;1.55;;
9729;SDS011;4904;49.152;11.004;2023-08-08T10:47:37;3.70;;;1.65;;
9729;SDS011;4904;49.152;11.004;2023-08-08T10:50:04;2.30;;;1.45;;
9729;SDS011;4904;49.152;11.004;2023-08-08T10:52:37;2.08;;;1.85;;
9729;SDS011;4904;49.152;11.004;2023-08-08T10:55:05;2.60;;;1.50;;
9729;SDS011;4904;49.152;11.004;2023-08-08T10:57:36;1.75;;;1.40;;
9729;SDS011;4904;49.152;11.004;2023-08-08T11:02:53;3.15;;;1.60;;
9729;SDS011;4904;49.152;11.004;2023-08-08T11:05:22;2.33;;;1.75;;
9729;SDS011;4904;49.152;11.004;2023-08-08T11:07:52;3.22;;;1.80;;
9729;SDS011;4904;49.152;11.004;2023-08-08T11:10:19;2.28;;;1.33;;
9729;SDS011;4904;49.152;11.004;2023-08-08T11:12:56;2.65;;;1.80;;
9729;SDS011;4904;49.152;11.004;2023-08-08T11:15:24;1.83;;;1.58;;
9729;SDS011;4904;49.152;11.004;2023-08-08T11:17:52;2.67;;;1.75;;
9729;SDS011;4904;49.152;11.004;2023-08-08T11:20:20;1.65;;;1.55;;
9729;SDS011;4904;49.152;11.004;2023-08-08T11:22:51;2.88;;;1.70;;
9729;SDS011;4904;49.152;11.004;2023-08-08T11:25:20;3.92;;;1.58;;
9729;SDS011;4904;49.152;11.004;2023-08-08T11:27:50;1.70;;;1.60;;
9729;SDS011;4904;49.152;11.004;2023-08-08T11:30:17;1.80;;;1.50;;
9729;SDS011;4904;49.152;11.004;2023-08-08T11:32:45;3.05;;;1.50;;
9729;SDS011;4904;49.152;11.004;2023-08-08T11:35:13;2.90;;;1.70;;
9729;SDS011;4904;49.152;11.004;2023-08-08T11:37:42;2.08;;;1.40;;
9729;SDS011;4904;49.152;11.004;2023-08-08T11:40:12;3.03;;;1.60;;
9729;SDS011;4904;49.152;11.004;2023-08-08T11:42:39;2.42;;;2.00;;
9729;SDS011;4904;49.152;11.004;2023-08-08T11:45:08;2.15;;;1.80;;
9729;SDS011;4904;49.152;11.004;2023-08-08T11:47:36;1.80;;;1.70;;
9729;SDS011;4904;49.152;11.004;2023-08-08T11:50:07;2.55;;;1.80;;
9729;SDS011;4904;49.152;11.004;2023-08-08T11:52:35;3.42;;;1.58;;
9729;SDS011;4904;49.152;11.004;2023-08-08T11:55:05;2.90;;;1.50;;
9729;SDS011;4904;49.152;11.004;2023-08-08T11:57:34;1.85;;;1.73;;
9729;SDS011;4904;49.152;11.004;2023-08-08T12:00:02;1.60;;;1.40;;
9729;SDS011;4904;49.152;11.004;2023-08-08T12:02:32;1.55;;;1.45;;
9729;SDS011;4904;49.152;11.004;2023-08-08T12:05:03;2.58;;;1.80;;
9729;SDS011;4904;49.152;11.004;2023-08-08T12:07:31;2.30;;;1.80;;
9729;SDS011;4904;49.152;11.004;2023-08-08T12:09:58;1.65;;;1.55;;
9729;SDS011;4904;49.152;11.004;2023-08-08T12:12:25;3.67;;;1.60;;
9729;SDS011;4904;49.152;11.004;2023-08-08T12:14:54;5.50;;;2.00;;
9729;SDS011;4904;49.152;11.004;2023-08-08T12:17:21;2.92;;;1.67;;
9729;SDS011;4904;49.152;11.004;2023-08-08T12:19:48;2.50;;;1.60;;
9729;SDS011;4904;49.152;11.004;2023-08-08T12:22:15;2.25;;;1.70;;
9729;SDS011;4904;49.152;11.004;2023-08-08T12:24:42;1.95;;;1.70;;
9729;SDS011;4904;49.152;11.004;2023-08-08T12:27:08;2.33;;;1.60;;
9729;SDS011;4904;49.152;11.004;2023-08-08T12:29:35;2.15;;;1.60;;
9729;SDS011;4904;49.152;11.004;2023-08-08T12:32:04;1.80;;;1.70;;
9729;SDS011;4904;49.152;11.004;2023-08-08T12:34:33;3.42;;;1.45;;
9729;SDS011;4904;49.152;11.004;2023-08-08T12:37:00;1.95;;;1.67;;
9729;SDS011;4904;49.152;11.004;2023-08-08T12:39:27;1.58;;;1.48;;
9729;SDS011;4904;49.152;11.004;2023-08-08T12:41:54;1.83;;;1.73;;
9729;SDS011;4904;49.152;11.004;2023-08-08T12:44:21;1.77;;;1.55;;
9729;SDS011;4904;49.152;11.004;2023-08-08T12:46:48;2.30;;;1.88;;
9729;SDS011;4904;49.152;11.004;2023-08-08T12:49:17;1.88;;;1.58;;
9729;SDS011;4904;49.152;11.004;2023-08-08T12:51:43;1.83;;;1.73;;
9729;SDS011;4904;49.152;11.004;2023-08-08T12:54:10;2.22;;;1.90;;
9729;SDS011;4904;49.152;11.004;2023-08-08T12:56:37;2.40;;;1.80;;
9729;SDS011;4904;49.152;11.004;2023-08-08T12:59:04;2.85;;;1.60;;
9729;SDS011;4904;49.152;11.004;2023-08-08T13:01:31;1.80;;;1.60;;
9729;SDS011;4904;49.152;11.004;2023-08-08T13:03:59;2.13;;;1.40;;
9729;SDS011;4904;49.152;11.004;2023-08-08T13:06:27;2.70;;;1.60;;
9729;SDS011;4904;49.152;11.004;2023-08-08T13:08:54;2.63;;;1.55;;
9729;SDS011;4904;49.152;11.004;2023-08-08T13:11:21;2.28;;;1.70;;
9729;SDS011;4904;49.152;11.004;2023-08-08T13:13:48;1.98;;;1.60;;
9729;SDS011;4904;49.152;11.004;2023-08-08T13:16:15;2.40;;;1.80;;
9729;SDS011;4904;49.152;11.004;2023-08-08T13:18:42;2.63;;;2.03;;
9729;SDS011;4904;49.152;11.004;2023-08-08T13:21:09;1.80;;;1.70;;
9729;SDS011;4904;49.152;11.004;2023-08-08T13:23:40;1.60;;;1.50;;
9729;SDS011;4904;49.152;11.004;2023-08-08T13:26:07;4.10;;;1.73;;
9729;SDS011;4904;49.152;11.004;2023-08-08T13:28:34;1.70;;;1.58;;
9729;SDS011;4904;49.152;11.004;2023-08-08T13:31:01;2.13;;;1.48;;
9729;SDS011;4904;49.152;11.004;2023-08-08T13:33:28;1.67;;;1.58;;
9729;SDS011;4904;49.152;11.004;2023-08-08T13:35:55;3.13;;;1.45;;
9729;SDS011;4904;49.152;11.004;2023-08-08T13:38:22;2.60;;;1.33;;
9729;SDS011;4904;49.152;11.004;2023-08-08T13:40:50;1.65;;;1.55;;
9729;SDS011;4904;49.152;11.004;2023-08-08T13:43:18;2.83;;;1.65;;
9729;SDS011;4904;49.152;11.004;2023-08-08T13:45:45;1.63;;;1.52;;
9729;SDS011;4904;49.152;11.004;2023-08-08T13:48:12;1.73;;;1.58;;
9729;SDS011;4904;49.152;11.004;2023-08-08T13:50:39;1.40;;;1.30;;
9729;SDS011;4904;49.152;11.004;2023-08-08T13:53:06;1.70;;;1.60;;
9729;SDS011;4904;49.152;11.004;2023-08-08T13:55:33;2.13;;;1.58;;
9729;SDS011;4904;49.152;11.004;2023-08-08T13:58:05;1.70;;;1.58;;
9729;SDS011;4904;49.152;11.004;2023-08-08T14:00:32;1.30;;;1.20;;
9729;SDS011;4904;49.152;11.004;2023-08-08T14:03:00;1.50;;;1.40;;
9729;SDS011;4904;49.152;11.004;2023-08-08T14:05:27;1.70;;;1.52;;
9729;SDS011;4904;49.152;11.004;2023-08-08T14:07:56;1.63;;;1.52;;
9729;SDS011;4904;49.152;11.004;2023-08-08T14:10:23;1.85;;;1.35;;
9729;SDS011;4904;49.152;11.004;2023-08-08T14:12:50;1.65;;;1.50;;
9729;SDS011;4904;49.152;11.004;2023-08-08T14:15:18;2.55;;;1.65;;
9729;SDS011;4904;49.152;11.004;2023-08-08T14:17:45;1.60;;;1.50;;
9729;SDS011;4904;49.152;11.004;2023-08-08T14:20:12;1.70;;;1.60;;
9729;SDS011;4904;49.152;11.004;2023-08-08T14:22:39;1.90;;;1.77;;
9729;SDS011;4904;49.152;11.004;2023-08-08T14:25:06;2.17;;;1.55;;
9729;SDS011;4904;49.152;11.004;2023-08-08T14:27:33;1.80;;;1.70;;
9729;SDS011;4904;49.152;11.004;2023-08-08T14:30:01;2.58;;;1.73;;
9729;SDS011;4904;49.152;11.004;2023-08-08T14:32:31;1.55;;;1.45;;
9729;SDS011;4904;49.152;11.004;2023-08-08T14:34:58;2.03;;;1.40;;
9729;SDS011;4904;49.152;11.004;2023-08-08T14:37:24;1.70;;;1.60;;
9729;SDS011;4904;49.152;11.004;2023-08-08T14:39:51;1.65;;;1.55;;
9729;SDS011;4904;49.152;11.004;2023-08-08T14:42:19;1.80;;;1.67;;
9729;SDS011;4904;49.152;11.004;2023-08-08T14:44:46;2.30;;;1.60;;
9729;SDS011;4904;49.152;11.004;2023-08-08T14:47:12;1.45;;;1.30;;
9729;SDS011;4904;49.152;11.004;2023-08-08T14:49:41;1.60;;;1.50;;
9729;SDS011;4904;49.152;11.004;2023-08-08T14:52:07;1.80;;;1.60;;
9729;SDS011;4904;49.152;11.004;2023-08-08T14:54:34;3.03;;;1.70;;
9729;SDS011;4904;49.152;11.004;2023-08-08T14:57:01;1.75;;;1.65;;
9729;SDS011;4904;49.152;11.004;2023-08-08T14:59:28;1.92;;;1.73;;
9729;SDS011;4904;49.152;11.004;2023-08-08T15:01:56;1.90;;;1.63;;
9729;SDS011;4904;49.152;11.004;2023-08-08T15:04:23;2.30;;;1.80;;
9729;SDS011;4904;49.152;11.004;2023-08-08T15:06:51;1.63;;;1.52;;